Time;durP1;ratioP1;P1;durP2;ratioP2;P2;SDS_P1;SDS_P2;PMS_P1;PMS_P2;Temp;Humidity;BMP_temperature;BMP_pressure;BME280_temperature;BME280_humidity;BME280_pressure;Samples;Min_cycle;Max_cycle;Signal;HPM_P1;HPM_P2
2021/08/06 00:00:11;;;;;;;2.17;2.00;;;19.10;82.50;;;;;;4919958;29;20480;-52
2021/08/06 00:02:38;;;;;;;1.93;1.83;;;19.00;82.50;;;;;;4932648;29;20571;-52
2021/08/06 00:05:05;;;;;;;2.37;2.20;;;19.00;82.60;;;;;;4931906;29;20452;-52
2021/08/06 00:07:32;;;;;;;2.80;2.57;;;19.00;82.50;;;;;;4917457;29;20464;-52
2021/08/06 00:09:59;;;;;;;2.50;2.30;;;19.00;82.60;;;;;;4925979;29;20504;-52
2021/08/06 00:12:25;;;;;;;2.00;1.83;;;19.00;82.60;;;;;;4928337;29;20488;-52
2021/08/06 00:14:52;;;;;;;2.63;2.20;;;19.00;82.40;;;;;;4928771;29;20930;-52
2021/08/06 00:17:19;;;;;;;2.40;2.03;;;19.00;82.20;;;;;;4916579;29;20969;-52
2021/08/06 00:19:46;;;;;;;2.20;2.00;;;19.00;82.20;;;;;;4931537;29;20462;-52
2021/08/06 00:22:13;;;;;;;2.00;1.57;;;18.90;82.30;;;;;;4931560;29;20464;-52
2021/08/06 00:24:40;;;;;;;2.13;1.93;;;18.90;82.40;;;;;;4914557;29;20805;-52
2021/08/06 00:27:07;;;;;;;2.17;1.97;;;18.90;82.60;;;;;;4931095;29;20817;-52
2021/08/06 00:29:33;;;;;;;3.00;2.30;;;18.80;82.70;;;;;;4927392;29;20726;-52
2021/08/06 00:32:00;;;;;;;1.80;1.70;;;18.80;82.70;;;;;;4928975;29;20456;-52
2021/08/06 00:34:27;;;;;;;3.10;1.90;;;18.80;82.80;;;;;;4930703;29;20478;-52
2021/08/06 00:36:54;;;;;;;2.40;2.00;;;18.70;82.90;;;;;;4929295;29;20563;-52
2021/08/06 00:39:20;;;;;;;3.37;2.30;;;18.70;83.00;;;;;;4931762;29;20456;-52
2021/08/06 00:41:47;;;;;;;2.50;2.30;;;18.70;83.10;;;;;;4930851;29;20468;-52
2021/08/06 00:44:14;;;;;;;1.97;1.57;;;18.70;83.20;;;;;;4922554;29;20993;-52
2021/08/06 00:46:41;;;;;;;2.20;2.00;;;18.70;83.20;;;;;;4932806;29;20547;-52
2021/08/06 00:49:08;;;;;;;2.67;1.80;;;18.60;83.30;;;;;;4928585;29;20498;-52
2021/08/06 00:51:35;;;;;;;1.80;1.70;;;18.60;83.40;;;;;;4930733;29;20475;-52
2021/08/06 00:54:02;;;;;;;3.07;2.37;;;18.60;83.50;;;;;;4928939;29;20464;-52
2021/08/06 00:56:28;;;;;;;5.63;2.50;;;18.60;83.60;;;;;;4930568;29;20477;-52
2021/08/06 00:58:55;;;;;;;2.40;2.20;;;18.50;83.50;;;;;;4930488;29;20464;-52
2021/08/06 01:01:25;;;;;;;2.10;1.90;;;18.50;83.50;;;;;;4929135;29;20980;-52
2021/08/06 01:04:14;;;;;;;2.20;2.00;;;18.50;83.50;;;;;;4929250;29;20487;-52
2021/08/06 01:06:49;;;;;;;3.27;2.17;;;18.50;83.60;;;;;;4929560;29;20472;-52
2021/08/06 01:09:38;;;;;;;2.17;1.97;;;18.40;83.60;;;;;;4931229;29;20501;-52
2021/08/06 01:12:09;;;;;;;2.17;1.97;;;18.40;83.70;;;;;;4928130;29;20464;-52
2021/08/06 01:14:40;;;;;;;3.00;2.80;;;18.40;83.70;;;;;;4925963;29;20474;-52
2021/08/06 01:17:10;;;;;;;2.70;1.90;;;18.40;83.80;;;;;;4930201;29;20460;-52
2021/08/06 01:19:37;;;;;;;3.83;2.17;;;18.30;83.80;;;;;;4930687;29;20937;-52
2021/08/06 01:22:20;;;;;;;2.40;2.20;;;18.30;83.80;;;;;;4916731;29;20551;-52
2021/08/06 01:25:28;;;;;;;2.93;2.63;;;18.30;83.90;;;;;;4931742;29;20461;-52
2021/08/06 01:27:55;;;;;;;2.90;2.50;;;18.20;83.90;;;;;;4880566;29;20467;-52
2021/08/06 01:30:22;;;;;;;2.53;2.20;;;18.20;84.00;;;;;;4927681;29;20471;-52
2021/08/06 01:32:49;;;;;;;3.10;2.20;;;18.20;84.10;;;;;;4931793;29;20482;-52
2021/08/06 01:35:15;;;;;;;2.70;2.30;;;18.10;84.10;;;;;;4929207;29;20467;-52
2021/08/06 01:37:42;;;;;;;2.33;2.00;;;18.10;84.10;;;;;;4929482;29;20463;-52
2021/08/06 01:40:10;;;;;;;4.13;2.80;;;18.10;84.20;;;;;;4929267;29;20464;-52
2021/08/06 01:43:04;;;;;;;2.47;1.90;;;18.10;84.20;;;;;;4926946;29;20460;-52
2021/08/06 01:45:37;;;;;;;4.03;2.37;;;18.10;84.20;;;;;;4928819;29;20488;-52
2021/08/06 01:48:07;;;;;;;3.10;2.13;;;18.00;84.20;;;;;;4930754;29;20474;-52
2021/08/06 01:50:38;;;;;;;2.30;2.10;;;18.00;84.30;;;;;;4927894;29;20476;-52
2021/08/06 01:53:13;;;;;;;2.33;2.13;;;18.00;84.40;;;;;;4931205;29;20456;-52
2021/08/06 01:55:51;;;;;;;2.30;2.10;;;18.00;84.40;;;;;;4915919;29;20612;-52
2021/08/06 01:58:20;;;;;;;3.57;2.60;;;18.00;84.50;;;;;;4892650;29;20456;-52
2021/08/06 02:00:48;;;;;;;2.73;2.13;;;17.90;84.60;;;;;;4915196;29;20496;-52
2021/08/06 02:03:17;;;;;;;4.70;2.80;;;17.90;84.60;;;;;;4912983;29;20544;-52
2021/08/06 02:05:48;;;;;;;3.47;3.03;;;17.90;84.70;;;;;;4930914;29;20459;-52
2021/08/06 02:08:15;;;;;;;2.73;2.30;;;17.90;84.60;;;;;;4917880;29;20832;-52
2021/08/06 02:10:44;;;;;;;2.87;2.00;;;17.90;84.60;;;;;;4931841;29;20468;-52
2021/08/06 02:13:11;;;;;;;2.57;2.33;;;17.90;84.60;;;;;;4932304;29;20471;-52
2021/08/06 02:15:41;;;;;;;3.17;2.17;;;17.80;84.70;;;;;;4917287;29;20964;-52
2021/08/06 02:18:11;;;;;;;2.50;2.30;;;17.80;84.70;;;;;;4932652;29;20463;-52
2021/08/06 02:20:39;;;;;;;2.93;2.57;;;17.80;84.70;;;;;;4933262;29;20550;-52
2021/08/06 02:23:09;;;;;;;2.57;2.37;;;17.80;84.80;;;;;;4902100;29;20464;-52
2021/08/06 02:25:38;;;;;;;3.00;2.13;;;17.80;84.80;;;;;;4930912;29;20511;-52
2021/08/06 02:28:05;;;;;;;3.17;2.63;;;17.80;84.90;;;;;;4913231;29;20468;-52
2021/08/06 02:30:33;;;;;;;2.73;1.80;;;17.80;84.90;;;;;;4932737;29;20491;-52
2021/08/06 02:33:00;;;;;;;2.37;2.10;;;17.80;84.90;;;;;;4932277;29;20466;-52
2021/08/06 02:35:27;;;;;;;6.33;2.47;;;17.80;85.00;;;;;;4934704;29;20460;-53
2021/08/06 02:37:54;;;;;;;3.20;2.70;;;17.80;85.00;;;;;;4931881;29;20551;-52
2021/08/06 02:40:21;;;;;;;3.50;3.20;;;17.80;85.10;;;;;;4917360;29;20483;-52
2021/08/06 02:42:48;;;;;;;2.30;2.10;;;17.80;85.20;;;;;;4929904;29;20464;-49
2021/08/06 02:45:15;;;;;;;2.90;2.70;;;17.80;85.10;;;;;;4930117;29;20835;-48
2021/08/06 02:47:42;;;;;;;3.20;2.57;;;17.80;85.20;;;;;;4921582;29;20474;-48
2021/08/06 02:50:11;;;;;;;2.70;2.30;;;17.80;85.20;;;;;;4932892;29;20492;-48
2021/08/06 02:52:38;;;;;;;2.50;2.30;;;17.80;85.30;;;;;;4916569;29;20524;-48
2021/08/06 02:55:05;;;;;;;2.40;2.20;;;17.90;85.30;;;;;;4930424;29;20456;-51
2021/08/06 02:57:32;;;;;;;2.50;2.30;;;17.90;85.30;;;;;;4917847;29;20471;-50
2021/08/06 02:59:59;;;;;;;2.90;2.27;;;17.90;85.30;;;;;;4931913;29;20494;-50
2021/08/06 03:02:26;;;;;;;2.40;2.20;;;17.90;85.40;;;;;;4928719;29;20459;-50
2021/08/06 03:04:53;;;;;;;4.33;3.20;;;17.90;85.40;;;;;;4929846;29;20551;-50
2021/08/06 03:07:20;;;;;;;3.00;2.70;;;17.90;85.50;;;;;;4931824;29;20471;-50
2021/08/06 03:09:47;;;;;;;5.30;2.67;;;17.90;85.50;;;;;;4931031;29;20500;-50
2021/08/06 03:12:14;;;;;;;4.30;3.10;;;17.90;85.70;;;;;;4932941;29;20460;-50
2021/08/06 03:14:40;;;;;;;3.33;3.03;;;17.90;85.80;;;;;;4931211;29;20466;-50
2021/08/06 03:17:08;;;;;;;3.23;3.00;;;17.90;85.90;;;;;;4923614;29;20470;-50
2021/08/06 03:19:34;;;;;;;4.70;2.83;;;17.90;85.90;;;;;;4930166;29;20472;-50
2021/08/06 03:22:01;;;;;;;4.07;3.07;;;17.90;86.10;;;;;;4928839;29;20455;-50
2021/08/06 03:24:29;;;;;;;4.70;3.20;;;17.90;86.30;;;;;;4929954;29;20468;-50
2021/08/06 03:26:55;;;;;;;7.70;3.80;;;17.90;86.40;;;;;;4928859;29;21006;-51
2021/08/06 03:29:22;;;;;;;4.70;3.20;;;17.90;86.60;;;;;;4927910;29;20500;-50
2021/08/06 03:31:49;;;;;;;3.63;2.80;;;17.90;86.80;;;;;;4932532;29;20487;-50
2021/08/06 03:34:15;;;;;;;5.00;3.47;;;17.90;87.00;;;;;;4930045;29;20529;-50
2021/08/06 03:36:43;;;;;;;6.43;3.73;;;17.90;87.20;;;;;;4916776;29;20464;-50
2021/08/06 03:39:09;;;;;;;3.70;3.20;;;17.90;87.50;;;;;;4933249;29;20464;-50
2021/08/06 03:41:36;;;;;;;3.67;3.27;;;17.90;87.80;;;;;;4927468;29;21049;-50
2021/08/06 03:44:03;;;;;;;8.83;4.10;;;17.90;88.10;;;;;;4910085;29;20472;-50
2021/08/06 03:46:29;;;;;;;9.10;4.47;;;17.90;88.30;;;;;;4932023;29;20460;-51
2021/08/06 03:48:56;;;;;;;5.97;4.00;;;17.90;88.40;;;;;;4931575;29;20487;-51
2021/08/06 03:51:23;;;;;;;4.97;3.57;;;17.90;88.60;;;;;;4930124;29;20935;-50
2021/08/06 03:53:50;;;;;;;5.60;4.07;;;17.90;88.80;;;;;;4931931;29;20471;-50
2021/08/06 03:56:19;;;;;;;3.77;3.43;;;18.00;89.00;;;;;;4932032;29;20470;-50
2021/08/06 03:58:46;;;;;;;4.80;3.10;;;18.00;89.10;;;;;;4930860;29;20460;-50
2021/08/06 04:01:12;;;;;;;5.10;3.53;;;18.00;89.10;;;;;;4912863;29;20510;-51
2021/08/06 04:03:39;;;;;;;3.50;3.20;;;18.00;89.00;;;;;;4930835;29;20527;-50
2021/08/06 04:06:06;;;;;;;4.80;3.80;;;18.00;89.00;;;;;;4914875;29;20488;-50
2021/08/06 04:08:33;;;;;;;4.27;3.20;;;18.00;89.00;;;;;;4932557;29;20464;-50
2021/08/06 04:11:00;;;;;;;6.50;3.93;;;18.00;89.10;;;;;;4931216;29;20464;-50
2021/08/06 04:13:26;;;;;;;4.20;3.40;;;18.00;89.30;;;;;;4931186;29;20504;-50
2021/08/06 04:15:53;;;;;;;3.73;3.43;;;18.00;89.40;;;;;;4931478;29;20965;-50
2021/08/06 04:18:20;;;;;;;3.13;2.80;;;18.00;89.40;;;;;;4929505;29;20460;-50
2021/08/06 04:20:46;;;;;;;7.13;3.40;;;18.00;89.30;;;;;;4931974;29;20478;-50
2021/08/06 04:23:13;;;;;;;4.40;3.20;;;18.00;89.40;;;;;;4913751;29;20490;-50
2021/08/06 04:25:40;;;;;;;4.80;3.17;;;18.00;89.40;;;;;;4932676;29;20467;-50
2021/08/06 04:28:07;;;;;;;4.37;2.73;;;18.00;89.60;;;;;;4932431;28;20819;-50
2021/08/06 04:30:34;;;;;;;3.40;3.10;;;18.00;89.60;;;;;;4927899;29;20522;-50
2021/08/06 04:33:01;;;;;;;3.37;3.03;;;18.00;89.70;;;;;;4926875;29;20464;-50
2021/08/06 04:35:28;;;;;;;3.60;3.10;;;18.00;89.70;;;;;;4917493;29;20460;-50
2021/08/06 04:37:56;;;;;;;4.10;3.70;;;18.00;89.80;;;;;;4930665;29;20472;-50
2021/08/06 04:40:23;;;;;;;4.90;3.80;;;18.00;89.80;;;;;;4930578;29;20472;-50
2021/08/06 04:42:49;;;;;;;4.60;3.43;;;18.00;89.80;;;;;;4924924;29;20472;-50
2021/08/06 04:45:19;;;;;;;6.33;3.03;;;18.00;89.80;;;;;;4914082;29;20475;-50
2021/08/06 04:47:48;;;;;;;5.23;3.23;;;18.00;89.80;;;;;;4930002;29;20962;-50
2021/08/06 04:50:18;;;;;;;5.70;3.77;;;18.00;89.80;;;;;;4929959;29;21064;-50
2021/08/06 04:52:49;;;;;;;6.63;4.10;;;18.00;89.80;;;;;;4928870;29;20548;-50
2021/08/06 04:55:16;;;;;;;4.00;3.60;;;18.00;89.80;;;;;;4911104;29;20468;-50
2021/08/06 04:57:44;;;;;;;7.40;4.20;;;18.10;89.80;;;;;;4916073;29;20462;-50
2021/08/06 05:00:12;;;;;;;3.10;2.90;;;18.10;89.80;;;;;;4931407;29;20538;-50
2021/08/06 05:02:39;;;;;;;7.70;4.13;;;18.10;89.80;;;;;;4928626;29;20969;-50
2021/08/06 05:05:06;;;;;;;4.07;3.30;;;18.10;89.80;;;;;;4928622;29;20746;-50
2021/08/06 05:07:33;;;;;;;3.63;3.33;;;18.10;89.80;;;;;;4931315;29;20520;-50
2021/08/06 05:10:00;;;;;;;5.40;3.20;;;18.10;89.80;;;;;;4926659;29;20499;-50
2021/08/06 05:12:27;;;;;;;4.80;3.20;;;18.10;89.80;;;;;;4929567;29;20471;-50
2021/08/06 05:14:54;;;;;;;3.83;3.43;;;18.10;89.80;;;;;;4929714;29;20463;-50
2021/08/06 05:17:21;;;;;;;4.30;3.90;;;18.10;89.80;;;;;;4928076;29;20465;-50
2021/08/06 05:19:48;;;;;;;4.30;3.03;;;18.10;89.80;;;;;;4928844;29;21016;-50
2021/08/06 05:22:15;;;;;;;4.33;3.50;;;18.10;89.80;;;;;;4928510;29;20470;-50
2021/08/06 05:24:42;;;;;;;3.40;3.10;;;18.10;89.80;;;;;;4927783;29;20464;-50
2021/08/06 05:27:08;;;;;;;5.30;3.43;;;18.10;89.80;;;;;;4929725;29;20468;-50
2021/08/06 05:29:35;;;;;;;3.53;3.23;;;18.10;89.80;;;;;;4933756;29;20567;-50
2021/08/06 05:32:02;;;;;;;3.77;3.47;;;18.10;89.80;;;;;;4929983;29;20455;-50
2021/08/06 05:34:29;;;;;;;5.17;3.97;;;18.10;89.80;;;;;;4920458;29;20451;-50
2021/08/06 05:36:56;;;;;;;3.50;3.10;;;18.10;89.80;;;;;;4931883;29;20440;-50
2021/08/06 05:39:22;;;;;;;4.30;3.87;;;18.20;89.80;;;;;;4928570;29;20508;-50
2021/08/06 05:41:49;;;;;;;4.80;3.47;;;18.10;89.80;;;;;;4931328;29;20547;-50
2021/08/06 05:44:16;;;;;;;3.93;3.50;;;18.10;89.80;;;;;;4914903;29;20940;-50
2021/08/06 05:46:43;;;;;;;4.67;3.90;;;18.20;89.80;;;;;;4930604;29;20544;-50
2021/08/06 05:49:09;;;;;;;4.07;3.77;;;18.20;89.80;;;;;;4931015;29;20462;-50
2021/08/06 05:51:36;;;;;;;4.10;3.63;;;18.20;89.80;;;;;;4928986;29;20815;-50
2021/08/06 05:54:04;;;;;;;6.30;3.27;;;18.20;89.80;;;;;;4926595;29;20468;-50
2021/08/06 05:56:35;;;;;;;6.90;3.80;;;18.30;89.80;;;;;;4929197;29;20480;-50
2021/08/06 05:59:02;;;;;;;3.10;2.80;;;18.30;89.80;;;;;;4928152;29;20459;-50
2021/08/06 06:01:28;;;;;;;4.07;3.23;;;18.30;89.80;;;;;;4923714;29;20495;-50
2021/08/06 06:03:55;;;;;;;3.57;3.27;;;18.30;89.80;;;;;;4930902;29;20833;-50
2021/08/06 06:06:22;;;;;;;2.90;2.70;;;18.40;89.80;;;;;;4927758;29;20884;-50
2021/08/06 06:08:50;;;;;;;4.03;3.33;;;18.40;89.80;;;;;;4927998;29;20560;-50
2021/08/06 06:11:17;;;;;;;3.63;3.00;;;18.40;89.80;;;;;;4929638;29;20499;-51
2021/08/06 06:13:43;;;;;;;4.50;3.13;;;18.40;89.80;;;;;;4930838;29;20918;-50
2021/08/06 06:16:10;;;;;;;2.97;2.77;;;18.50;89.80;;;;;;4929091;29;20471;-50
2021/08/06 06:18:37;;;;;;;5.00;3.73;;;18.60;89.80;;;;;;4930210;29;20464;-50
2021/08/06 06:21:04;;;;;;;2.97;2.70;;;18.60;89.80;;;;;;4928419;29;20478;-50
2021/08/06 06:23:30;;;;;;;2.63;2.40;;;18.70;89.80;;;;;;4923768;29;20507;-49
2021/08/06 06:25:57;;;;;;;3.00;2.70;;;18.80;89.80;;;;;;4930332;29;20562;-51
2021/08/06 06:28:24;;;;;;;4.83;2.67;;;18.80;89.50;;;;;;4913151;29;20463;-51
2021/08/06 06:30:51;;;;;;;6.30;3.20;;;18.90;89.40;;;;;;4913543;29;20596;-50
2021/08/06 06:33:18;;;;;;;4.47;2.83;;;18.90;89.30;;;;;;4928907;29;20500;-51
2021/08/06 06:35:45;;;;;;;4.57;3.90;;;19.00;89.20;;;;;;4928914;29;20506;-51
2021/08/06 06:38:11;;;;;;;3.57;3.27;;;19.00;89.20;;;;;;4929809;29;20805;-51
2021/08/06 06:40:38;;;;;;;2.90;2.70;;;19.00;89.10;;;;;;4931203;29;20965;-51
2021/08/06 06:43:05;;;;;;;3.43;2.70;;;19.10;88.90;;;;;;4897727;29;20985;-51
2021/08/06 06:45:32;;;;;;;2.90;2.70;;;19.10;89.00;;;;;;4924690;29;20905;-51
2021/08/06 06:47:59;;;;;;;5.30;3.10;;;19.10;89.00;;;;;;4915179;29;21078;-50
2021/08/06 06:50:28;;;;;;;3.70;3.37;;;19.20;88.60;;;;;;4930433;29;20496;-51
2021/08/06 06:52:55;;;;;;;2.83;2.53;;;19.20;88.60;;;;;;4929705;29;20790;-51
2021/08/06 06:55:22;;;;;;;3.03;2.80;;;19.20;88.70;;;;;;4930614;29;20474;-51
2021/08/06 06:57:51;;;;;;;4.40;3.07;;;19.20;88.80;;;;;;4935560;29;20458;-51
2021/08/06 07:00:21;;;;;;;3.63;3.33;;;19.30;88.40;;;;;;4934200;28;20480;-51
2021/08/06 07:02:48;;;;;;;5.60;3.53;;;19.40;88.20;;;;;;4934439;29;20468;-51
2021/08/06 07:05:16;;;;;;;3.20;2.90;;;19.40;88.30;;;;;;4917469;29;21033;-51
2021/08/06 07:07:43;;;;;;;2.77;2.50;;;19.40;88.20;;;;;;4933827;29;20471;-51
2021/08/06 07:10:11;;;;;;;3.30;2.50;;;19.40;88.20;;;;;;4918178;29;20592;-50
2021/08/06 07:12:40;;;;;;;3.67;3.03;;;19.40;88.30;;;;;;4933284;29;20467;-51
2021/08/06 07:15:08;;;;;;;3.43;2.63;;;19.50;88.10;;;;;;4932695;29;20470;-51
2021/08/06 07:17:40;;;;;;;3.03;2.53;;;19.40;88.20;;;;;;4923842;29;20470;-51
2021/08/06 07:20:09;;;;;;;8.30;3.23;;;19.50;88.00;;;;;;4931294;29;20459;-51
2021/08/06 07:22:36;;;;;;;3.23;2.90;;;19.50;87.70;;;;;;4930318;29;20836;-51
2021/08/06 07:25:04;;;;;;;3.17;2.70;;;19.50;88.00;;;;;;4914780;29;20559;-51
2021/08/06 07:27:31;;;;;;;2.90;2.50;;;19.50;87.50;;;;;;4911931;29;20470;-51
2021/08/06 07:29:58;;;;;;;2.50;2.30;;;19.50;87.30;;;;;;4934879;29;20866;-51
2021/08/06 07:32:25;;;;;;;5.40;2.53;;;19.50;87.30;;;;;;4931299;29;20842;-51
2021/08/06 07:34:55;;;;;;;2.73;2.47;;;19.40;87.60;;;;;;4930411;29;20464;-51
2021/08/06 07:37:22;;;;;;;2.20;1.87;;;19.40;87.90;;;;;;4929244;29;20464;-51
2021/08/06 07:39:49;;;;;;;1.93;1.83;;;19.40;87.60;;;;;;4929902;29;20462;-51
2021/08/06 07:42:16;;;;;;;2.50;2.30;;;19.50;87.30;;;;;;4928722;29;20464;-51
2021/08/06 07:44:44;;;;;;;2.80;1.73;;;19.50;87.10;;;;;;4931734;29;20938;-51
2021/08/06 07:47:11;;;;;;;3.10;1.80;;;19.40;87.10;;;;;;4932238;29;20455;-50
2021/08/06 07:49:41;;;;;;;2.27;2.07;;;19.40;87.50;;;;;;4918454;29;20519;-50
2021/08/06 07:52:09;;;;;;;3.00;1.90;;;19.40;87.70;;;;;;4934211;29;20452;-51
2021/08/06 07:54:40;;;;;;;1.67;1.57;;;19.40;87.80;;;;;;4914409;29;20527;-51
2021/08/06 07:57:08;;;;;;;4.17;3.60;;;19.40;87.90;;;;;;4914623;29;20460;-51
2021/08/06 07:59:35;;;;;;;3.60;3.13;;;19.50;88.00;;;;;;4923982;29;20482;-50
2021/08/06 08:02:02;;;;;;;2.30;2.10;;;19.50;88.10;;;;;;4909979;29;20539;-49
2021/08/06 08:04:30;;;;;;;3.70;2.10;;;19.50;88.40;;;;;;4927454;29;20550;-51
2021/08/06 08:06:57;;;;;;;4.33;2.60;;;19.60;87.70;;;;;;4930821;29;20460;-51
2021/08/06 08:09:23;;;;;;;2.50;1.90;;;19.70;87.70;;;;;;4931942;29;20496;-50
2021/08/06 08:11:50;;;;;;;3.00;2.70;;;19.70;87.40;;;;;;4930469;29;20595;-50
2021/08/06 08:14:17;;;;;;;2.70;1.67;;;19.70;87.70;;;;;;4929903;29;20519;-50
2021/08/06 08:16:44;;;;;;;2.63;1.70;;;19.80;87.90;;;;;;4931649;29;20462;-50
2021/08/06 08:19:11;;;;;;;4.70;2.53;;;19.90;87.00;;;;;;4933091;29;20932;-49
2021/08/06 08:21:38;;;;;;;2.43;2.20;;;19.90;86.50;;;;;;4931860;29;20559;-50
2021/08/06 08:24:05;;;;;;;2.20;1.67;;;20.00;86.60;;;;;;4932570;29;20460;-50
2021/08/06 08:26:34;;;;;;;2.20;1.70;;;20.00;86.10;;;;;;4915077;29;20516;-50
2021/08/06 08:29:01;;;;;;;1.57;1.47;;;20.00;84.60;;;;;;4930109;29;20931;-50
2021/08/06 08:31:27;;;;;;;2.70;1.93;;;20.00;85.00;;;;;;4929411;29;20491;-50
2021/08/06 08:33:54;;;;;;;1.70;1.60;;;20.00;84.80;;;;;;4931379;29;20468;-50
2021/08/06 08:36:21;;;;;;;1.63;1.33;;;20.10;84.80;;;;;;4913402;29;20929;-50
2021/08/06 08:38:48;;;;;;;2.43;1.30;;;20.10;84.40;;;;;;4929767;29;20456;-50
2021/08/06 08:41:15;;;;;;;1.10;1.00;;;20.10;84.70;;;;;;4915561;29;20822;-49
2021/08/06 08:43:43;;;;;;;1.40;1.30;;;20.10;84.50;;;;;;4933256;29;20972;-50
2021/08/06 08:46:10;;;;;;;3.80;1.10;;;20.10;84.40;;;;;;4930636;29;20798;-50
2021/08/06 08:48:37;;;;;;;2.80;1.40;;;20.10;84.70;;;;;;4932761;29;20551;-50
2021/08/06 08:51:05;;;;;;;1.43;1.20;;;20.00;83.30;;;;;;4930619;29;20484;-50
2021/08/06 08:53:32;;;;;;;2.97;0.90;;;20.00;83.60;;;;;;4932609;29;20949;-50
2021/08/06 08:56:00;;;;;;;1.00;0.90;;;20.00;82.20;;;;;;4932223;29;20444;-50
2021/08/06 08:58:28;;;;;;;1.00;0.90;;;20.00;82.10;;;;;;4933336;29;20456;-50
2021/08/06 09:00:55;;;;;;;0.73;0.73;;;20.00;81.90;;;;;;4931124;29;20498;-50
2021/08/06 09:03:43;;;;;;;1.43;1.00;;;19.90;81.90;;;;;;4927187;29;20468;-50
2021/08/06 09:06:10;;;;;;;1.30;1.20;;;20.00;83.10;;;;;;4927788;29;20828;-50
2021/08/06 09:08:38;;;;;;;1.47;1.10;;;20.00;82.30;;;;;;4929870;29;20460;-50
2021/08/06 09:11:33;;;;;;;1.20;1.10;;;20.10;82.50;;;;;;4925707;29;20498;-50
2021/08/06 09:14:25;;;;;;;1.63;1.50;;;20.20;82.80;;;;;;4928252;29;20467;-50
2021/08/06 09:17:01;;;;;;;1.20;1.10;;;20.20;82.70;;;;;;4922502;29;20467;-50
2021/08/06 09:19:31;;;;;;;1.23;1.13;;;20.30;83.10;;;;;;4930748;29;20460;-50
2021/08/06 09:22:19;;;;;;;1.20;1.07;;;20.40;81.60;;;;;;4930561;29;20468;-50
2021/08/06 09:25:07;;;;;;;1.57;1.47;;;20.50;80.10;;;;;;4929307;29;20543;-49
2021/08/06 09:27:39;;;;;;;1.67;1.57;;;20.60;79.60;;;;;;4930170;29;20472;-50
2021/08/06 09:30:34;;;;;;;2.03;1.50;;;20.60;79.70;;;;;;4910899;29;20556;-50
2021/08/06 09:33:02;;;;;;;3.60;1.60;;;20.70;78.80;;;;;;4912234;29;20531;-49
2021/08/06 09:35:32;;;;;;;1.63;1.37;;;20.70;78.80;;;;;;4913627;29;20527;-50
2021/08/06 09:38:01;;;;;;;2.23;1.80;;;20.90;78.60;;;;;;4930448;29;20448;-50
2021/08/06 09:40:36;;;;;;;2.10;1.90;;;21.00;77.90;;;;;;4927556;29;20500;-50
2021/08/06 09:43:14;;;;;;;2.67;2.00;;;21.30;77.60;;;;;;4915703;29;20869;-50
2021/08/06 09:45:42;;;;;;;1.87;1.77;;;21.50;77.70;;;;;;4928385;29;20543;-50
2021/08/06 09:48:11;;;;;;;1.83;1.73;;;21.90;76.40;;;;;;4910427;29;20844;-50
2021/08/06 09:50:39;;;;;;;2.37;2.20;;;22.10;74.00;;;;;;4928725;29;20499;-50
2021/08/06 09:53:06;;;;;;;3.20;2.40;;;22.30;74.50;;;;;;4908749;29;20467;-51
2021/08/06 09:55:35;;;;;;;3.43;2.50;;;22.50;72.20;;;;;;4928045;29;20965;-50
2021/08/06 09:58:08;;;;;;;2.83;2.10;;;22.70;71.70;;;;;;4928664;29;21039;-52
2021/08/06 10:00:40;;;;;;;2.40;1.87;;;23.20;71.10;;;;;;4926548;29;20495;-50
2021/08/06 10:03:10;;;;;;;3.10;2.00;;;23.70;70.60;;;;;;4926508;29;20518;-50
2021/08/06 10:05:37;;;;;;;2.17;1.90;;;24.20;67.20;;;;;;4928406;29;20468;-50
2021/08/06 10:08:04;;;;;;;2.87;1.90;;;24.40;64.70;;;;;;4900188;29;20462;-50
2021/08/06 10:10:35;;;;;;;2.83;2.00;;;24.60;64.90;;;;;;4928952;29;20469;-50
2021/08/06 10:13:04;;;;;;;3.17;1.90;;;24.90;64.10;;;;;;4929705;29;20546;-50
2021/08/06 10:15:31;;;;;;;2.20;1.77;;;25.10;63.00;;;;;;4914214;29;20471;-50
2021/08/06 10:17:59;;;;;;;2.83;2.33;;;24.80;63.10;;;;;;4911340;29;20463;-50
2021/08/06 10:20:27;;;;;;;2.43;1.83;;;24.60;64.10;;;;;;4926214;29;20467;-50
2021/08/06 10:22:55;;;;;;;4.10;1.70;;;24.40;64.50;;;;;;4923934;29;20474;-50
2021/08/06 10:25:24;;;;;;;2.23;2.00;;;24.20;64.30;;;;;;4928953;29;20470;-50
2021/08/06 10:27:52;;;;;;;3.53;1.50;;;24.00;65.00;;;;;;4931592;29;20447;-50
2021/08/06 10:30:22;;;;;;;4.67;2.03;;;23.70;66.20;;;;;;4916757;29;20455;-50
2021/08/06 10:33:24;;;;;;;2.57;2.10;;;23.40;66.80;;;;;;4931760;29;20548;-50
2021/08/06 10:35:56;;;;;;;3.53;1.63;;;23.10;67.70;;;;;;4902279;29;20545;-50
2021/08/06 10:38:42;;;;;;;4.07;1.57;;;23.00;68.40;;;;;;4932860;29;20491;-50
2021/08/06 10:41:15;;;;;;;1.80;1.60;;;23.20;67.50;;;;;;4931785;29;20473;-50
2021/08/06 10:43:49;;;;;;;1.97;1.60;;;23.30;65.90;;;;;;4927519;29;20474;-50
2021/08/06 10:46:18;;;;;;;1.83;1.50;;;23.40;66.70;;;;;;4932102;29;20491;-50
2021/08/06 10:48:54;;;;;;;2.90;1.97;;;23.40;67.50;;;;;;4933206;29;20514;-50
2021/08/06 10:51:26;;;;;;;4.13;1.97;;;23.40;66.70;;;;;;4916147;29;20483;-50
2021/08/06 10:53:55;;;;;;;2.33;1.53;;;23.40;67.30;;;;;;4934202;29;20462;-50
2021/08/06 10:56:30;;;;;;;2.80;1.40;;;23.50;66.90;;;;;;4932961;29;20460;-50
2021/08/06 10:58:59;;;;;;;1.53;1.40;;;23.60;65.40;;;;;;4933666;29;20465;-50
2021/08/06 11:01:32;;;;;;;1.70;1.30;;;23.70;65.70;;;;;;4930677;29;20487;-50
2021/08/06 11:04:00;;;;;;;1.70;1.23;;;23.70;65.50;;;;;;4931349;29;20459;-51
2021/08/06 11:06:39;;;;;;;1.30;1.10;;;23.70;65.70;;;;;;4931559;29;21003;-50
2021/08/06 11:09:11;;;;;;;1.33;1.13;;;23.60;64.00;;;;;;4933867;29;20459;-50
2021/08/06 11:11:49;;;;;;;2.60;0.90;;;23.50;64.70;;;;;;4930496;29;20487;-50
2021/08/06 11:14:28;;;;;;;1.37;1.00;;;23.40;64.30;;;;;;4911868;29;20467;-51
2021/08/06 11:17:11;;;;;;;2.03;0.97;;;23.40;65.00;;;;;;4934218;29;20797;-50
2021/08/06 11:20:06;;;;;;;0.73;0.67;;;23.40;65.10;;;;;;4933073;29;20951;-50
2021/08/06 11:22:44;;;;;;;1.70;1.07;;;23.40;64.50;;;;;;4935369;29;20469;-50
2021/08/06 11:25:18;;;;;;;2.40;1.20;;;23.50;64.80;;;;;;4933300;29;20522;-51
2021/08/06 11:27:47;;;;;;;3.97;1.27;;;23.50;65.00;;;;;;4933157;29;20459;-51
2021/08/06 11:30:32;;;;;;;1.03;0.90;;;23.60;64.20;;;;;;4916887;29;20473;-51
2021/08/06 11:33:03;;;;;;;1.03;0.70;;;23.60;62.90;;;;;;4932508;29;20459;-51
2021/08/06 11:35:35;;;;;;;1.97;1.00;;;23.50;63.00;;;;;;4932910;29;20471;-51
2021/08/06 11:38:05;;;;;;;1.00;0.80;;;23.40;65.80;;;;;;4915442;29;20474;-51
2021/08/06 11:40:36;;;;;;;1.63;1.00;;;23.40;65.60;;;;;;4931693;29;20451;-51
2021/08/06 11:43:14;;;;;;;1.03;0.93;;;23.40;64.70;;;;;;4934289;29;20964;-51
2021/08/06 11:45:42;;;;;;;1.80;1.00;;;23.40;65.20;;;;;;4928971;29;20469;-51
2021/08/06 11:48:10;;;;;;;0.83;0.67;;;23.30;63.90;;;;;;4916365;29;20459;-50
2021/08/06 11:50:53;;;;;;;2.00;1.10;;;23.30;64.80;;;;;;4933937;29;20453;-51
2021/08/06 11:53:25;;;;;;;1.07;0.90;;;23.30;65.00;;;;;;4930751;29;20984;-51
2021/08/06 11:55:57;;;;;;;2.57;1.30;;;23.30;64.40;;;;;;4932824;29;20455;-51
2021/08/06 11:58:31;;;;;;;1.40;1.00;;;23.30;63.50;;;;;;4927099;29;20460;-51
2021/08/06 12:00:58;;;;;;;1.23;0.90;;;23.20;64.30;;;;;;4926380;29;20479;-51
2021/08/06 12:03:25;;;;;;;1.20;1.03;;;23.10;64.30;;;;;;4934215;29;20484;-51
2021/08/06 12:06:00;;;;;;;2.27;0.87;;;23.00;64.20;;;;;;4916576;29;20547;-51
2021/08/06 12:08:32;;;;;;;0.73;0.73;;;22.90;63.90;;;;;;4933289;29;20952;-51
2021/08/06 12:11:05;;;;;;;1.20;0.90;;;22.80;63.70;;;;;;4915046;29;20485;-51
2021/08/06 12:13:38;;;;;;;1.27;0.90;;;22.70;63.50;;;;;;4933529;29;20506;-51
2021/08/06 12:16:06;;;;;;;1.33;0.80;;;22.70;63.20;;;;;;4932788;29;20970;-51
2021/08/06 12:18:38;;;;;;;2.70;0.90;;;22.70;63.00;;;;;;4928678;29;20448;-51
2021/08/06 12:21:09;;;;;;;1.70;1.00;;;22.70;62.50;;;;;;4915282;29;20463;-51
2021/08/06 12:23:41;;;;;;;1.10;1.00;;;22.70;63.10;;;;;;4930560;29;20460;-51
2021/08/06 12:26:21;;;;;;;1.00;0.73;;;22.70;62.50;;;;;;4934110;29;20458;-51
2021/08/06 12:28:51;;;;;;;1.60;1.00;;;22.70;62.70;;;;;;4931127;29;20477;-50
2021/08/06 12:31:23;;;;;;;0.93;0.83;;;22.60;64.00;;;;;;4932399;29;20844;-50
2021/08/06 12:34:06;;;;;;;1.90;1.10;;;22.70;63.40;;;;;;4931609;29;20470;-50
2021/08/06 12:36:36;;;;;;;0.90;0.70;;;22.70;65.00;;;;;;4930248;29;20471;-50
2021/08/06 12:39:16;;;;;;;2.03;1.00;;;22.70;65.70;;;;;;4930264;29;20466;-50
2021/08/06 12:41:45;;;;;;;1.43;0.90;;;22.70;64.70;;;;;;4911446;29;20463;-50
2021/08/06 12:44:25;;;;;;;2.87;0.80;;;22.70;64.70;;;;;;4926571;29;20781;-50
2021/08/06 12:46:56;;;;;;;3.47;1.27;;;22.70;65.50;;;;;;4929147;29;20482;-50
2021/08/06 12:49:28;;;;;;;1.73;1.10;;;22.60;65.00;;;;;;4929444;29;20477;-50
2021/08/06 12:52:03;;;;;;;1.20;1.13;;;22.50;65.60;;;;;;4926916;29;20495;-50
2021/08/06 12:54:45;;;;;;;1.70;0.90;;;22.40;65.30;;;;;;4928895;29;20892;-50
2021/08/06 12:57:13;;;;;;;2.43;1.20;;;22.30;65.70;;;;;;4928424;29;20979;-50
2021/08/06 12:59:44;;;;;;;0.90;0.80;;;22.20;66.10;;;;;;4930347;29;20841;-51